Terminal Aerodrome Forecast
Issued by NWS

Home | Current Version | Previous Version | Text Only | Print | Product List | Glossary Off
Versions: 1 2 3 4 5 6 7 8 9 10 11 12

812
FTUS43 KIWX 221120
TAFSBN
TAF
KSBN 221120Z 2212/2312 33007KT P6SM OVC035
     FM221700 28006KT P6SM BKN040
     FM222200 27005KT P6SM FEW050 SCT150
     FM230200 20005KT P6SM BKN100=

USA.gov is the U.S. government's official web portal to all federal, state and local government web resources and services.